createdAt,value
2023-05-08T00:01:09.319Z,4.22
2023-05-08T00:03:36.292Z,4.19
2023-05-08T00:06:06.850Z,4.22
2023-05-08T00:08:33.799Z,4.21
2023-05-08T00:11:01.008Z,4.20
2023-05-08T00:13:28.012Z,4.22
2023-05-08T00:15:55.282Z,4.20
2023-05-08T00:18:22.119Z,4.19
2023-05-08T00:20:49.244Z,4.19
2023-05-08T00:23:16.070Z,4.20
2023-05-08T00:25:43.379Z,4.20
2023-05-08T00:28:10.217Z,4.19
2023-05-08T00:30:37.343Z,4.22
2023-05-08T00:33:04.704Z,4.22
2023-05-08T00:35:31.877Z,4.23
2023-05-08T00:37:58.837Z,4.22
2023-05-08T00:40:26.159Z,4.21
2023-05-08T00:42:53.360Z,4.20
2023-05-08T00:45:20.836Z,4.19
2023-05-08T00:47:47.904Z,4.20
2023-05-08T00:50:15.290Z,4.18
2023-05-08T00:52:43.050Z,4.20
2023-05-08T00:55:10.318Z,4.20
2023-05-08T00:57:37.980Z,4.20
2023-05-08T01:00:05.936Z,4.22
2023-05-08T01:02:33.144Z,4.21
2023-05-08T01:05:00.666Z,4.21
2023-05-08T01:07:28.144Z,4.23
2023-05-08T01:09:55.622Z,4.23
2023-05-08T01:12:41.072Z,4.20
2023-05-08T01:15:08.561Z,4.20
2023-05-08T01:18:04.115Z,4.18
2023-05-08T01:20:43.248Z,4.15
2023-05-08T01:23:35.240Z,4.15
2023-05-08T01:26:27.181Z,4.14
2023-05-08T01:29:09.230Z,4.14
2023-05-08T01:32:04.031Z,4.14
2023-05-08T01:34:33.463Z,4.14
2023-05-08T01:37:08.642Z,4.15
2023-05-08T01:40:03.314Z,4.16
2023-05-08T01:42:56.524Z,4.17
2023-05-08T01:45:29.286Z,4.19
2023-05-08T01:48:11.077Z,4.19
2023-05-08T01:50:47.434Z,4.19
2023-05-08T01:53:23.461Z,4.18
2023-05-08T01:55:53.691Z,4.18
2023-05-08T01:58:24.410Z,4.21
2023-05-08T02:00:51.919Z,4.21
2023-05-08T02:03:22.670Z,4.21
2023-05-08T02:05:52.363Z,4.20
2023-05-08T02:08:21.968Z,4.23
2023-05-08T02:10:51.028Z,4.22
2023-05-08T02:13:20.422Z,4.23
2023-05-08T02:15:48.170Z,4.16
2023-05-08T02:18:18.751Z,4.18
2023-05-08T02:20:46.576Z,4.16
2023-05-08T02:23:16.255Z,4.16
2023-05-08T02:25:46.005Z,4.19
2023-05-08T02:28:15.296Z,4.17
2023-05-08T02:30:43.490Z,4.16
2023-05-08T02:33:13.471Z,4.16
2023-05-08T02:35:43.763Z,4.14
2023-05-08T02:38:13.207Z,4.17
2023-05-08T02:40:44.833Z,4.16
2023-05-08T02:43:12.378Z,4.13
2023-05-08T02:45:47.316Z,4.12
2023-05-08T02:48:35.251Z,4.11
2023-05-08T02:51:33.677Z,4.13
2023-05-08T02:54:14.730Z,4.10
2023-05-08T02:56:50.514Z,4.12
2023-05-08T02:59:22.312Z,4.12
2023-05-08T03:02:09.442Z,4.12
2023-05-08T03:04:49.406Z,4.14
2023-05-08T03:07:16.538Z,4.14
2023-05-08T03:09:47.972Z,4.13
2023-05-08T03:12:17.383Z,4.14
2023-05-08T03:14:57.064Z,4.13
2023-05-08T03:17:25.792Z,4.11
2023-05-08T03:19:58.228Z,4.09
2023-05-08T03:22:26.814Z,4.12
2023-05-08T03:24:56.743Z,4.10
2023-05-08T03:27:24.557Z,4.12
2023-05-08T03:29:53.493Z,4.12
2023-05-08T03:32:22.257Z,4.13
2023-05-08T03:34:50.213Z,4.12
2023-05-08T03:37:17.976Z,4.11
2023-05-08T03:39:45.328Z,4.13
2023-05-08T03:42:21.298Z,4.12
2023-05-08T03:44:52.723Z,4.14
2023-05-08T03:47:21.712Z,4.13
2023-05-08T03:49:50.466Z,4.12
2023-05-08T03:52:17.519Z,4.14
2023-05-08T03:54:44.649Z,4.13
2023-05-08T03:57:11.738Z,4.11
2023-05-08T03:59:39.641Z,4.13
2023-05-08T04:02:17.811Z,4.12
2023-05-08T04:04:47.434Z,4.13
2023-05-08T04:07:23.729Z,4.14
2023-05-08T04:10:12.463Z,4.14
2023-05-08T04:13:09.007Z,4.14
2023-05-08T04:15:44.719Z,4.16
2023-05-08T04:18:16.527Z,4.16
2023-05-08T04:20:47.737Z,4.15
2023-05-08T04:23:19.874Z,4.18
2023-05-08T04:25:50.170Z,4.21
2023-05-08T04:28:18.584Z,4.21
2023-05-08T04:30:46.302Z,4.24
2023-05-08T04:33:15.605Z,4.26
2023-05-08T04:35:42.923Z,4.24
2023-05-08T04:38:09.785Z,4.28
2023-05-08T04:40:36.984Z,4.29
2023-05-08T04:43:03.830Z,4.31
2023-05-08T04:45:30.997Z,4.28
2023-05-08T04:47:57.951Z,4.29
2023-05-08T04:50:25.148Z,4.32
2023-05-08T04:52:52.054Z,4.35
2023-05-08T04:55:19.196Z,4.36
2023-05-08T04:57:46.076Z,4.34
2023-05-08T05:00:13.953Z,4.36
2023-05-08T05:02:41.014Z,4.38
2023-05-08T05:05:08.698Z,4.43
2023-05-08T05:07:35.611Z,4.43
2023-05-08T05:10:02.883Z,4.43
2023-05-08T05:12:29.743Z,4.49
2023-05-08T05:14:56.952Z,4.50
2023-05-08T05:17:23.843Z,4.52
2023-05-08T05:19:53.337Z,4.53
2023-05-08T05:22:20.417Z,4.55
2023-05-08T05:24:47.650Z,4.56
2023-05-08T05:27:14.590Z,4.56
2023-05-08T05:29:41.738Z,4.56
2023-05-08T05:32:10.270Z,4.56
2023-05-08T05:34:37.397Z,4.58
2023-05-08T05:37:04.243Z,4.61
2023-05-08T05:39:31.385Z,4.65
2023-05-08T05:41:58.190Z,4.71
2023-05-08T05:44:25.421Z,4.74
2023-05-08T05:46:52.287Z,4.79
2023-05-08T05:49:19.455Z,4.87
2023-05-08T05:51:46.256Z,4.89
2023-05-08T05:54:14.570Z,4.94
2023-05-08T05:56:41.404Z,4.98
2023-05-08T05:59:08.931Z,5.02
2023-05-08T06:01:35.865Z,5.07
2023-05-08T06:04:03.204Z,5.09
2023-05-08T06:06:30.234Z,5.14
2023-05-08T06:08:57.784Z,5.17
2023-05-08T06:11:24.716Z,5.20
2023-05-08T06:13:51.920Z,5.22
2023-05-08T06:16:20.949Z,5.24
2023-05-08T06:18:48.128Z,5.28
2023-05-08T06:21:15.012Z,5.30
2023-05-08T06:23:42.823Z,5.33
2023-05-08T06:26:09.768Z,5.36
2023-05-08T06:28:36.867Z,5.41
2023-05-08T06:31:03.867Z,5.47
2023-05-08T06:33:31.524Z,5.53
2023-05-08T06:35:58.458Z,5.60
2023-05-08T06:38:25.857Z,5.66
2023-05-08T06:40:54.059Z,5.73
2023-05-08T06:43:21.793Z,5.79
2023-05-08T06:45:48.746Z,5.83
2023-05-08T06:48:15.921Z,5.87
2023-05-08T06:50:43.429Z,5.84
2023-05-08T06:53:10.714Z,5.83
2023-05-08T06:55:37.557Z,5.91
2023-05-08T06:58:04.866Z,6.00
2023-05-08T07:00:31.716Z,6.14
2023-05-08T07:02:58.997Z,6.28
2023-05-08T07:05:26.078Z,6.43
2023-05-08T07:07:54.262Z,6.44
2023-05-08T07:10:22.997Z,6.46
2023-05-08T07:12:50.380Z,6.53
2023-05-08T07:15:25.613Z,6.62
2023-05-08T07:17:53.696Z,6.77
2023-05-08T07:20:21.637Z,6.90
2023-05-08T07:22:48.981Z,7.00
2023-05-08T07:25:16.252Z,7.17
2023-05-08T07:27:43.539Z,7.25
2023-05-08T07:30:10.811Z,7.29
2023-05-08T07:32:39.402Z,7.25
2023-05-08T07:35:11.050Z,7.33
2023-05-08T07:37:41.694Z,7.43
2023-05-08T07:40:09.125Z,7.46
2023-05-08T07:42:42.801Z,7.40
2023-05-08T07:45:11.914Z,7.44
2023-05-08T07:47:48.214Z,7.47
2023-05-08T07:50:15.291Z,7.59
2023-05-08T07:52:42.605Z,7.68
2023-05-08T07:55:09.721Z,7.70
2023-05-08T07:57:41.860Z,7.66
2023-05-08T08:00:12.305Z,7.65
2023-05-08T08:02:39.801Z,7.68
2023-05-08T08:05:08.280Z,7.76
2023-05-08T08:07:35.773Z,7.77
2023-05-08T08:10:04.661Z,7.79
2023-05-08T08:12:32.138Z,7.87
2023-05-08T08:14:59.076Z,7.84
2023-05-08T08:17:28.446Z,7.81
2023-05-08T08:19:55.851Z,7.87
2023-05-08T08:22:24.073Z,8.00
2023-05-08T08:24:53.190Z,8.21
2023-05-08T08:27:22.122Z,8.35
2023-05-08T08:29:48.910Z,8.38
2023-05-08T08:32:16.033Z,8.34
2023-05-08T08:34:42.975Z,8.24
2023-05-08T08:37:10.145Z,8.14
2023-05-08T08:39:37.009Z,8.10
2023-05-08T08:42:04.210Z,8.08
2023-05-08T08:44:31.165Z,8.15
2023-05-08T08:46:58.996Z,8.09
2023-05-08T08:49:31.672Z,8.01
2023-05-08T08:52:07.057Z,8.07
2023-05-08T08:54:36.375Z,8.13
2023-05-08T08:57:09.335Z,8.22
2023-05-08T08:59:38.834Z,8.33
2023-05-08T09:02:18.189Z,8.35
2023-05-08T09:04:45.492Z,8.37
2023-05-08T09:07:12.652Z,8.38
2023-05-08T09:09:44.560Z,8.32
2023-05-08T09:12:13.575Z,8.38
2023-05-08T09:14:40.443Z,8.28
2023-05-08T09:17:07.666Z,8.27
2023-05-08T09:19:34.882Z,8.31
2023-05-08T09:22:04.211Z,8.43
2023-05-08T09:25:00.317Z,8.70
2023-05-08T09:27:29.872Z,9.15
2023-05-08T09:30:10.619Z,9.46
2023-05-08T09:32:40.151Z,10.05
2023-05-08T09:35:07.983Z,10.16
2023-05-08T09:37:39.394Z,9.98
2023-05-08T09:40:22.866Z,9.79
2023-05-08T09:42:51.188Z,9.63
2023-05-08T09:45:29.550Z,9.36
2023-05-08T09:47:56.927Z,9.22
2023-05-08T09:50:25.366Z,9.09
2023-05-08T09:52:52.555Z,8.97
2023-05-08T09:55:19.538Z,8.95
2023-05-08T09:57:58.526Z,9.07
2023-05-08T10:00:27.334Z,9.16
2023-05-08T10:02:59.697Z,9.11
2023-05-08T10:05:28.064Z,9.01
2023-05-08T10:07:55.788Z,9.05
2023-05-08T10:10:26.802Z,9.32
2023-05-08T10:12:56.009Z,10.00
2023-05-08T10:15:30.099Z,10.58
2023-05-08T10:18:05.367Z,11.77
2023-05-08T10:20:33.353Z,13.11
2023-05-08T10:23:01.990Z,13.74
2023-05-08T10:25:33.607Z,13.55
2023-05-08T10:28:09.302Z,13.13
2023-05-08T10:30:42.747Z,12.77
2023-05-08T10:33:11.395Z,12.40
2023-05-08T10:35:38.311Z,12.47
2023-05-08T10:38:08.648Z,13.19
2023-05-08T10:40:35.923Z,13.93
2023-05-08T10:43:04.035Z,14.60
2023-05-08T10:45:32.209Z,14.87
2023-05-08T10:48:11.812Z,14.52
2023-05-08T10:51:09.532Z,13.50
2023-05-08T10:53:57.343Z,12.59
2023-05-08T10:56:28.225Z,12.19
2023-05-08T10:58:59.504Z,11.85
2023-05-08T11:01:26.915Z,11.26
2023-05-08T11:03:56.165Z,10.90
2023-05-08T11:06:41.803Z,10.64
2023-05-08T11:09:08.998Z,10.57
2023-05-08T11:11:39.385Z,10.50
2023-05-08T11:14:09.261Z,10.45
2023-05-08T11:16:54.460Z,10.47
2023-05-08T11:19:23.138Z,10.64
2023-05-08T11:22:11.804Z,10.76
2023-05-08T11:24:40.635Z,10.84
2023-05-08T11:27:07.902Z,10.82
2023-05-08T11:29:36.276Z,10.90
2023-05-08T11:32:03.299Z,11.11
2023-05-08T11:34:43.112Z,11.26
2023-05-08T11:37:17.730Z,11.42
2023-05-08T11:39:44.957Z,11.60
2023-05-08T11:42:27.159Z,11.75
2023-05-08T11:45:13.991Z,11.53
2023-05-08T11:47:43.127Z,11.29
2023-05-08T11:50:13.236Z,10.94
2023-05-08T11:52:41.852Z,10.69
2023-05-08T11:55:10.689Z,10.56
2023-05-08T11:57:37.823Z,10.63
2023-05-08T12:00:06.941Z,10.77
2023-05-08T12:02:42.008Z,10.79
2023-05-08T12:05:10.753Z,10.77
2023-05-08T12:07:47.530Z,10.70
2023-05-08T12:10:16.048Z,10.67
2023-05-08T12:12:45.483Z,10.41
2023-05-08T12:15:14.896Z,10.28
2023-05-08T12:17:42.837Z,10.18
2023-05-08T12:20:12.247Z,10.23
2023-05-08T12:22:41.522Z,10.33
2023-05-08T12:25:11.042Z,10.49
2023-05-08T12:27:38.378Z,10.71
2023-05-08T12:30:10.709Z,10.91
2023-05-08T12:32:40.196Z,11.11
2023-05-08T12:35:08.985Z,11.22
2023-05-08T12:37:36.790Z,11.26
2023-05-08T12:40:05.143Z,11.30
2023-05-08T12:42:49.744Z,11.34
2023-05-08T12:45:39.445Z,11.51
2023-05-08T12:48:15.631Z,11.73
2023-05-08T12:50:46.068Z,11.99
2023-05-08T12:53:15.029Z,12.26
2023-05-08T12:55:53.001Z,12.27
2023-05-08T12:58:24.144Z,12.17
2023-05-08T13:00:53.180Z,12.00
2023-05-08T13:03:27.721Z,11.64
2023-05-08T13:05:57.897Z,11.31
2023-05-08T13:08:34.983Z,11.12
2023-05-08T13:11:04.134Z,11.00
2023-05-08T13:13:32.773Z,10.97
2023-05-08T13:16:03.772Z,11.02
2023-05-08T13:18:30.838Z,11.14
2023-05-08T13:20:58.558Z,11.23
2023-05-08T13:23:25.676Z,11.25
2023-05-08T13:25:52.972Z,11.26
2023-05-08T13:28:19.888Z,11.22
2023-05-08T13:30:46.979Z,11.19
2023-05-08T13:33:13.902Z,11.14
2023-05-08T13:35:41.183Z,11.09
2023-05-08T13:38:08.054Z,11.05
2023-05-08T13:40:35.254Z,11.02
2023-05-08T13:43:02.258Z,11.05
2023-05-08T13:45:29.506Z,11.02
2023-05-08T13:47:56.443Z,10.96
2023-05-08T13:50:23.778Z,10.92
2023-05-08T13:52:52.281Z,10.92
2023-05-08T13:55:22.870Z,10.93
2023-05-08T13:57:50.343Z,10.96
2023-05-08T14:00:18.334Z,11.06
2023-05-08T14:02:45.569Z,11.14
2023-05-08T14:05:13.492Z,11.11
2023-05-08T14:07:40.869Z,10.95
2023-05-08T14:10:08.523Z,10.79
2023-05-08T14:12:36.518Z,10.65
2023-05-08T14:15:05.575Z,10.48
2023-05-08T14:17:32.881Z,10.34
2023-05-08T14:20:00.522Z,10.17
2023-05-08T14:22:27.514Z,10.06
2023-05-08T14:24:54.755Z,9.93
2023-05-08T14:27:21.878Z,9.85
2023-05-08T14:29:49.300Z,9.78
2023-05-08T14:32:16.201Z,9.76
2023-05-08T14:34:43.372Z,9.72
2023-05-08T14:37:11.392Z,9.72
2023-05-08T14:39:38.596Z,9.72
2023-05-08T14:42:22.149Z,9.74
2023-05-08T14:44:49.936Z,9.75
2023-05-08T14:47:16.877Z,9.80
2023-05-08T14:49:44.062Z,9.84
2023-05-08T14:52:11.020Z,9.93
2023-05-08T14:54:38.785Z,9.97
2023-05-08T14:57:06.046Z,9.93
2023-05-08T14:59:33.271Z,9.88
2023-05-08T15:02:00.236Z,9.83
2023-05-08T15:04:27.462Z,9.76
2023-05-08T15:06:54.322Z,9.67
2023-05-08T15:09:21.520Z,9.64
2023-05-08T15:11:48.441Z,9.57
2023-05-08T15:14:15.676Z,9.52
2023-05-08T15:16:42.652Z,9.47
2023-05-08T15:19:10.111Z,9.44
2023-05-08T15:21:36.986Z,9.42
2023-05-08T15:24:04.337Z,9.39
2023-05-08T15:26:31.245Z,9.36
2023-05-08T15:28:58.480Z,9.38
2023-05-08T15:31:25.435Z,9.40
2023-05-08T15:33:52.776Z,9.48
2023-05-08T15:36:19.723Z,9.52
2023-05-08T15:38:49.123Z,9.58
2023-05-08T15:41:16.112Z,9.64
2023-05-08T15:43:45.377Z,9.70
2023-05-08T15:46:12.462Z,9.73
2023-05-08T15:48:39.677Z,9.71
2023-05-08T15:51:06.758Z,9.66
2023-05-08T15:53:34.610Z,9.63
2023-05-08T15:56:01.522Z,9.59
2023-05-08T15:58:28.708Z,9.56
2023-05-08T16:00:56.973Z,9.52
2023-05-08T16:03:24.573Z,9.49
2023-05-08T16:05:51.544Z,9.49
2023-05-08T16:08:18.746Z,9.47
2023-05-08T16:10:45.612Z,9.50
2023-05-08T16:13:12.888Z,9.52
2023-05-08T16:15:40.101Z,9.54
2023-05-08T16:18:07.448Z,9.58
2023-05-08T16:20:35.967Z,9.62
2023-05-08T16:23:03.505Z,9.65
2023-05-08T16:25:30.446Z,9.65
2023-05-08T16:27:57.607Z,9.64
2023-05-08T16:30:24.468Z,9.63
2023-05-08T16:32:51.887Z,9.60
2023-05-08T16:35:19.675Z,9.61
2023-05-08T16:37:46.964Z,9.58
2023-05-08T16:40:14.015Z,9.56
2023-05-08T16:42:41.328Z,9.54
2023-05-08T16:45:08.684Z,9.53
2023-05-08T16:47:36.244Z,9.48
2023-05-08T16:50:04.682Z,9.40
2023-05-08T16:52:33.070Z,9.30
2023-05-08T16:55:00.553Z,9.21
2023-05-08T16:57:27.998Z,9.09
2023-05-08T16:59:54.949Z,8.98
2023-05-08T17:02:22.324Z,8.86
2023-05-08T17:04:49.667Z,8.74
2023-05-08T17:07:17.953Z,8.66
2023-05-08T17:09:45.094Z,8.57
2023-05-08T17:12:12.304Z,8.49
2023-05-08T17:14:40.616Z,8.45
2023-05-08T17:17:08.265Z,8.43
2023-05-08T17:19:35.313Z,8.43
2023-05-08T17:22:02.826Z,8.43
2023-05-08T17:24:30.557Z,8.44
2023-05-08T17:26:58.070Z,8.41
2023-05-08T17:29:25.304Z,8.40
2023-05-08T17:31:52.871Z,8.37
2023-05-08T17:34:21.057Z,8.33
2023-05-08T17:36:48.350Z,8.29
2023-05-08T17:39:15.578Z,8.27
2023-05-08T17:41:42.771Z,8.25
2023-05-08T17:44:09.680Z,8.22
2023-05-08T17:46:36.856Z,8.19
2023-05-08T17:49:03.770Z,8.17
2023-05-08T17:51:31.577Z,8.14
2023-05-08T17:53:58.465Z,8.09
2023-05-08T17:56:25.963Z,8.05
2023-05-08T17:58:53.148Z,8.01
2023-05-08T18:01:20.494Z,7.97
2023-05-08T18:03:48.475Z,7.89
2023-05-08T18:06:16.948Z,7.81
2023-05-08T18:08:44.572Z,7.72
2023-05-08T18:11:22.815Z,7.63
2023-05-08T18:13:50.689Z,7.53
2023-05-08T18:16:19.351Z,7.41
2023-05-08T18:18:46.223Z,7.28
2023-05-08T18:21:13.912Z,7.15
2023-05-08T18:23:40.826Z,7.00
2023-05-08T18:26:08.060Z,6.87
2023-05-08T18:28:36.257Z,6.75
2023-05-08T18:31:03.508Z,6.62
2023-05-08T18:33:30.438Z,6.49
2023-05-08T18:35:57.729Z,6.35
2023-05-08T18:38:24.583Z,6.21
2023-05-08T18:40:51.770Z,6.04
2023-05-08T18:43:18.655Z,5.96
2023-05-08T18:45:45.937Z,5.90
2023-05-08T18:48:12.864Z,5.82
2023-05-08T18:50:40.074Z,5.72
2023-05-08T18:53:07.033Z,5.67
2023-05-08T18:55:34.254Z,5.59
2023-05-08T18:58:01.193Z,5.49
2023-05-08T19:00:28.353Z,5.38
2023-05-08T19:02:55.292Z,5.28
2023-05-08T19:05:22.600Z,5.16
2023-05-08T19:07:49.532Z,5.06
2023-05-08T19:10:16.791Z,4.92
2023-05-08T19:12:44.402Z,4.80
2023-05-08T19:15:14.042Z,4.71
2023-05-08T19:17:41.580Z,4.58
2023-05-08T19:20:09.192Z,4.49
2023-05-08T19:22:36.290Z,4.40
2023-05-08T19:25:03.998Z,4.31
2023-05-08T19:27:32.169Z,4.23
2023-05-08T19:29:59.308Z,4.12
2023-05-08T19:32:26.314Z,4.05
2023-05-08T19:34:55.441Z,3.99
2023-05-08T19:37:22.278Z,3.94
2023-05-08T19:39:49.463Z,3.89
2023-05-08T19:42:16.440Z,3.82
2023-05-08T19:44:43.587Z,3.75
2023-05-08T19:47:10.424Z,3.69
2023-05-08T19:49:37.611Z,3.61
2023-05-08T19:52:04.754Z,3.53
2023-05-08T19:54:31.974Z,3.41
2023-05-08T19:56:58.908Z,3.35
2023-05-08T19:59:26.080Z,3.29
2023-05-08T20:01:53.909Z,3.23
2023-05-08T20:04:21.259Z,3.15
2023-05-08T20:06:48.192Z,3.07
2023-05-08T20:09:15.382Z,3.01
2023-05-08T20:11:42.230Z,2.97
2023-05-08T20:14:09.514Z,2.90
2023-05-08T20:16:36.577Z,2.86
2023-05-08T20:19:03.976Z,2.77
2023-05-08T20:21:34.116Z,2.67
2023-05-08T20:24:01.408Z,2.62
2023-05-08T20:26:29.510Z,2.54
2023-05-08T20:28:57.441Z,2.47
2023-05-08T20:31:25.918Z,2.43
2023-05-08T20:33:54.348Z,2.40
2023-05-08T20:36:21.212Z,2.37
2023-05-08T20:38:48.541Z,2.38
2023-05-08T20:41:15.477Z,2.36
2023-05-08T20:43:42.739Z,2.33
2023-05-08T20:46:10.190Z,2.30
2023-05-08T20:48:38.509Z,2.24
2023-05-08T20:51:05.600Z,2.18
2023-05-08T20:53:32.879Z,2.12
2023-05-08T20:56:03.988Z,2.03
2023-05-08T20:58:31.747Z,1.99
2023-05-08T21:00:58.626Z,1.95
2023-05-08T21:03:26.251Z,1.91
2023-05-08T21:05:54.763Z,1.86
2023-05-08T21:08:23.567Z,1.83
2023-05-08T21:10:51.921Z,1.81
2023-05-08T21:13:19.594Z,1.80
2023-05-08T21:15:50.390Z,1.79
2023-05-08T21:18:18.568Z,1.77
2023-05-08T21:20:49.875Z,1.73
2023-05-08T21:23:17.992Z,1.67
2023-05-08T21:25:48.716Z,1.61
2023-05-08T21:28:16.570Z,1.58
2023-05-08T21:30:44.141Z,1.56
2023-05-08T21:33:13.917Z,1.52
2023-05-08T21:35:41.741Z,1.48
2023-05-08T21:38:12.122Z,1.40
2023-05-08T21:40:39.432Z,1.33
2023-05-08T21:43:06.599Z,1.28
2023-05-08T21:45:33.863Z,1.22
2023-05-08T21:48:01.427Z,1.18
2023-05-08T21:50:28.564Z,1.14
2023-05-08T21:52:56.799Z,1.12
2023-05-08T21:55:23.903Z,1.07
2023-05-08T21:57:51.323Z,1.04
2023-05-08T22:00:18.688Z,1.02
2023-05-08T22:02:46.033Z,0.98
2023-05-08T22:05:13.174Z,0.92
2023-05-08T22:07:41.155Z,0.87
2023-05-08T22:10:09.514Z,0.82
2023-05-08T22:12:36.661Z,0.77
2023-05-08T22:15:07.521Z,0.74
2023-05-08T22:17:40.670Z,0.72
2023-05-08T22:20:08.954Z,0.68
2023-05-08T22:22:36.082Z,0.66
2023-05-08T22:25:03.145Z,0.65
2023-05-08T22:27:30.310Z,0.58
2023-05-08T22:29:57.271Z,0.58
2023-05-08T22:32:25.277Z,0.53
2023-05-08T22:34:52.155Z,0.53
2023-05-08T22:37:19.320Z,0.48
2023-05-08T22:39:46.167Z,0.44
2023-05-08T22:42:13.388Z,0.44
2023-05-08T22:44:40.322Z,0.40
2023-05-08T22:47:07.829Z,0.37
2023-05-08T22:49:34.736Z,0.36
2023-05-08T22:52:02.236Z,0.32
2023-05-08T22:54:29.135Z,0.31
2023-05-08T22:56:56.391Z,0.26
2023-05-08T22:59:25.231Z,0.24
2023-05-08T23:01:52.515Z,0.16
2023-05-08T23:04:19.682Z,0.09
2023-05-08T23:06:46.993Z,0.06
2023-05-08T23:09:14.004Z,0.05
2023-05-08T23:11:41.205Z,0.02
2023-05-08T23:14:07.994Z,-0.04
2023-05-08T23:16:35.228Z,-0.06
2023-05-08T23:19:02.281Z,-0.11
2023-05-08T23:21:29.450Z,-0.16
2023-05-08T23:23:56.301Z,-0.20
2023-05-08T23:26:23.491Z,-0.23
2023-05-08T23:28:50.351Z,-0.26
2023-05-08T23:31:18.019Z,-0.30
2023-05-08T23:33:44.950Z,-0.33
2023-05-08T23:36:12.113Z,-0.34
2023-05-08T23:38:40.546Z,-0.39
2023-05-08T23:41:08.090Z,-0.44
2023-05-08T23:43:34.932Z,-0.49
2023-05-08T23:46:02.119Z,-0.52
2023-05-08T23:48:29.052Z,-0.55
2023-05-08T23:50:56.180Z,-0.60
2023-05-08T23:53:23.048Z,-0.62
2023-05-08T23:55:50.987Z,-0.64
2023-05-08T23:58:18.566Z,-0.67
